createdAt,value
2022-09-12T00:00:33.224Z,19.51
2022-09-12T00:03:01.759Z,19.55
2022-09-12T00:05:30.994Z,19.57
2022-09-12T00:07:58.857Z,19.57
2022-09-12T00:10:27.036Z,19.59
2022-09-12T00:12:54.944Z,19.60
2022-09-12T00:15:23.064Z,19.62
2022-09-12T00:17:52.516Z,19.63
2022-09-12T00:20:20.603Z,19.60
2022-09-12T00:22:48.464Z,19.57
2022-09-12T00:25:16.827Z,19.54
2022-09-12T00:27:44.774Z,19.53
2022-09-12T00:30:13.300Z,19.53
2022-09-12T00:32:41.511Z,19.51
2022-09-12T00:35:10.802Z,19.51
2022-09-12T00:37:38.747Z,19.50
2022-09-12T00:40:07.993Z,19.44
2022-09-12T00:42:35.924Z,19.37
2022-09-12T00:45:04.147Z,19.31
2022-09-12T00:47:35.635Z,19.23
2022-09-12T00:50:08.716Z,19.15
2022-09-12T00:52:43.378Z,19.11
2022-09-12T00:55:14.300Z,19.08
2022-09-12T00:57:50.080Z,19.06
2022-09-12T01:00:21.236Z,19.01
2022-09-12T01:02:52.975Z,18.95
2022-09-12T01:05:22.370Z,18.95
2022-09-12T01:07:53.339Z,18.97
2022-09-12T01:10:21.819Z,19.00
2022-09-12T01:12:49.836Z,19.02
2022-09-12T01:15:18.225Z,19.05
2022-09-12T01:18:04.490Z,19.06
2022-09-12T01:20:48.051Z,19.09
2022-09-12T01:23:54.815Z,19.05
2022-09-12T01:26:48.517Z,19.07
2022-09-12T01:29:37.690Z,19.03
2022-09-12T01:32:12.026Z,19.00
2022-09-12T01:34:51.466Z,18.97
2022-09-12T01:37:28.819Z,18.94
2022-09-12T01:40:04.248Z,18.93
2022-09-12T01:42:35.992Z,18.95
2022-09-12T01:45:10.887Z,18.93
2022-09-12T01:47:44.965Z,18.89
2022-09-12T01:50:18.811Z,18.88
2022-09-12T01:52:51.885Z,18.89
2022-09-12T01:55:24.962Z,18.90
2022-09-12T01:57:57.518Z,18.88
2022-09-12T02:00:25.694Z,18.86
2022-09-12T02:03:02.303Z,18.89
2022-09-12T02:05:34.154Z,18.94
2022-09-12T02:08:08.191Z,18.94
2022-09-12T02:10:44.123Z,18.95
2022-09-12T02:13:17.831Z,18.94
2022-09-12T02:15:50.614Z,18.95
2022-09-12T02:18:22.004Z,18.95
2022-09-12T02:20:51.136Z,18.93
2022-09-12T02:23:23.953Z,18.91
2022-09-12T02:25:55.713Z,18.92
2022-09-12T02:28:27.647Z,18.92
2022-09-12T02:31:05.999Z,18.93
2022-09-12T02:33:44.791Z,18.97
2022-09-12T02:36:21.942Z,18.93
2022-09-12T02:38:50.440Z,18.88
2022-09-12T02:41:21.304Z,18.88
2022-09-12T02:43:51.416Z,18.88
2022-09-12T02:46:23.651Z,18.88
2022-09-12T02:48:53.026Z,18.84
2022-09-12T02:51:23.857Z,18.84
2022-09-12T02:53:52.509Z,18.80
2022-09-12T02:56:26.540Z,18.77
2022-09-12T02:58:58.538Z,18.75
2022-09-12T03:01:50.609Z,18.69
2022-09-12T03:04:43.624Z,18.69
2022-09-12T03:07:17.824Z,18.61
2022-09-12T03:09:53.468Z,18.50
2022-09-12T03:12:33.320Z,18.44
2022-09-12T03:15:13.831Z,18.35
2022-09-12T03:17:53.983Z,18.31
2022-09-12T03:20:34.870Z,18.23
2022-09-12T03:23:06.623Z,18.16
2022-09-12T03:25:39.968Z,18.09
2022-09-12T03:28:11.468Z,18.02
2022-09-12T03:30:41.208Z,17.95
2022-09-12T03:33:12.854Z,17.89
2022-09-12T03:35:43.052Z,17.83
2022-09-12T03:38:11.256Z,17.76
2022-09-12T03:40:40.310Z,17.72
2022-09-12T03:43:09.357Z,17.67
2022-09-12T03:45:38.615Z,17.62
2022-09-12T03:48:07.203Z,17.56
2022-09-12T03:50:35.576Z,17.53
2022-09-12T03:53:05.206Z,17.50
2022-09-12T03:55:33.065Z,17.45
2022-09-12T03:58:01.223Z,17.44
2022-09-12T04:00:29.376Z,17.41
2022-09-12T04:02:58.252Z,17.37
2022-09-12T04:05:26.860Z,17.32
2022-09-12T04:07:54.784Z,17.28
2022-09-12T04:10:24.287Z,17.27
2022-09-12T04:12:52.110Z,17.24
2022-09-12T04:15:20.216Z,17.17
2022-09-12T04:17:48.619Z,17.11
2022-09-12T04:20:16.650Z,17.06
2022-09-12T04:22:44.553Z,17.03
2022-09-12T04:25:13.455Z,17.01
2022-09-12T04:27:43.024Z,17.00
2022-09-12T04:30:11.928Z,16.95
2022-09-12T04:32:41.363Z,16.90
2022-09-12T04:35:11.255Z,16.88
2022-09-12T04:37:39.477Z,16.85
2022-09-12T04:40:08.353Z,16.85
2022-09-12T04:42:36.408Z,16.84
2022-09-12T04:45:07.666Z,16.85
2022-09-12T04:47:35.552Z,16.82
2022-09-12T04:50:04.311Z,16.82
2022-09-12T04:52:32.487Z,16.78
2022-09-12T04:55:00.476Z,16.75
2022-09-12T04:57:28.383Z,16.73
2022-09-12T04:59:56.451Z,16.73
2022-09-12T05:02:25.810Z,16.75
2022-09-12T05:04:54.250Z,16.77
2022-09-12T05:07:22.318Z,16.76
2022-09-12T05:09:50.237Z,16.76
2022-09-12T05:12:18.887Z,16.77
2022-09-12T05:14:47.032Z,16.78
2022-09-12T05:17:14.894Z,16.78
2022-09-12T05:19:44.185Z,16.78
2022-09-12T05:22:12.314Z,16.78
2022-09-12T05:24:47.311Z,16.80
2022-09-12T05:27:18.086Z,16.84
2022-09-12T05:29:45.922Z,16.89
2022-09-12T05:32:13.830Z,16.95
2022-09-12T05:34:41.928Z,17.01
2022-09-12T05:37:11.078Z,17.06
2022-09-12T05:39:38.991Z,17.12
2022-09-12T05:42:07.265Z,17.17
2022-09-12T05:44:35.120Z,17.24
2022-09-12T05:47:03.083Z,17.32
2022-09-12T05:49:31.185Z,17.39
2022-09-12T05:51:59.034Z,17.46
2022-09-12T05:54:31.533Z,17.55
2022-09-12T05:56:59.962Z,17.64
2022-09-12T05:59:28.480Z,17.74
2022-09-12T06:01:56.557Z,17.84
2022-09-12T06:04:25.485Z,17.93
2022-09-12T06:06:53.618Z,18.01
2022-09-12T06:09:21.450Z,18.08
2022-09-12T06:11:51.792Z,18.17
2022-09-12T06:14:19.914Z,18.26
2022-09-12T06:16:48.639Z,18.35
2022-09-12T06:19:19.107Z,18.46
2022-09-12T06:21:49.415Z,18.57
2022-09-12T06:24:17.951Z,18.66
2022-09-12T06:26:46.916Z,18.75
2022-09-12T06:29:16.550Z,18.86
2022-09-12T06:31:45.331Z,18.96
2022-09-12T06:34:14.941Z,19.08
2022-09-12T06:36:44.205Z,19.20
2022-09-12T06:39:14.480Z,19.33
2022-09-12T06:41:44.296Z,19.45
2022-09-12T06:44:15.996Z,19.60
2022-09-12T06:46:46.108Z,19.76
2022-09-12T06:49:14.757Z,19.93
2022-09-12T06:51:43.117Z,20.06
2022-09-12T06:54:13.602Z,20.21
2022-09-12T06:56:41.915Z,20.34
2022-09-12T06:59:09.795Z,20.48
2022-09-12T07:01:37.934Z,20.59
2022-09-12T07:04:07.581Z,20.75
2022-09-12T07:06:38.139Z,20.88
2022-09-12T07:09:08.807Z,21.04
2022-09-12T07:11:38.661Z,21.19
2022-09-12T07:14:09.206Z,21.32
2022-09-12T07:16:37.419Z,21.45
2022-09-12T07:19:09.135Z,21.61
2022-09-12T07:21:39.830Z,21.81
2022-09-12T07:24:10.261Z,21.99
2022-09-12T07:26:40.369Z,22.11
2022-09-12T07:29:34.891Z,22.27
2022-09-12T07:31:57.290Z,22.46
2022-09-12T07:34:26.420Z,22.66
2022-09-12T07:36:54.399Z,22.85
2022-09-12T07:39:22.529Z,23.05
2022-09-12T07:41:50.404Z,23.21
2022-09-12T07:44:18.224Z,23.37
2022-09-12T07:46:46.671Z,23.54
2022-09-12T07:49:14.573Z,23.70
2022-09-12T07:51:43.820Z,23.87
2022-09-12T07:54:11.893Z,23.97
2022-09-12T07:56:40.810Z,24.11
2022-09-12T07:59:08.774Z,24.16
2022-09-12T08:01:37.186Z,24.28
2022-09-12T08:04:05.908Z,24.37
2022-09-12T08:06:36.054Z,24.45
2022-09-12T08:09:06.220Z,24.59
2022-09-12T08:11:34.871Z,24.65
2022-09-12T08:14:03.141Z,24.68
2022-09-12T08:16:33.006Z,24.83
2022-09-12T08:19:02.238Z,24.84
2022-09-12T08:21:31.992Z,24.86
2022-09-12T08:24:01.907Z,24.87
2022-09-12T08:26:32.755Z,24.87
2022-09-12T08:29:01.286Z,24.91
2022-09-12T08:31:29.824Z,25.06
2022-09-12T08:33:58.692Z,25.27
2022-09-12T08:36:29.634Z,25.35
2022-09-12T08:39:00.380Z,25.34
2022-09-12T08:41:34.899Z,25.40
2022-09-12T08:44:22.825Z,25.51
2022-09-12T08:47:03.900Z,25.76
2022-09-12T08:49:35.626Z,25.79
2022-09-12T08:52:08.119Z,25.84
2022-09-12T08:54:36.280Z,25.93
2022-09-12T08:57:07.078Z,26.07
2022-09-12T08:59:39.047Z,26.11
2022-09-12T09:02:24.955Z,26.23
2022-09-12T09:04:57.227Z,26.36
2022-09-12T09:07:40.943Z,26.54
2022-09-12T09:10:19.944Z,26.72
2022-09-12T09:13:00.809Z,26.84
2022-09-12T09:15:41.048Z,27.14
2022-09-12T09:18:17.041Z,27.39
2022-09-12T09:20:50.234Z,27.58
2022-09-12T09:23:24.736Z,27.69
2022-09-12T09:25:57.646Z,27.85
2022-09-12T09:28:33.309Z,28.11
2022-09-12T09:31:01.725Z,28.19
2022-09-12T09:33:35.179Z,28.28
2022-09-12T09:36:15.029Z,28.45
2022-09-12T09:38:50.059Z,28.56
2022-09-12T09:41:31.827Z,28.68
2022-09-12T09:44:02.833Z,28.68
2022-09-12T09:46:31.161Z,28.82
2022-09-12T09:49:03.770Z,29.16
2022-09-12T09:51:36.373Z,29.48
2022-09-12T09:54:12.223Z,29.77
2022-09-12T09:56:42.414Z,29.79
2022-09-12T09:59:13.698Z,30.03
2022-09-12T10:01:47.902Z,30.24
2022-09-12T10:04:21.521Z,30.40
2022-09-12T10:06:52.839Z,30.49
2022-09-12T10:09:24.778Z,30.57
2022-09-12T10:11:54.042Z,30.70
2022-09-12T10:14:38.877Z,30.80
2022-09-12T10:17:33.884Z,30.98
2022-09-12T10:20:21.701Z,30.88
2022-09-12T10:22:50.458Z,30.65
2022-09-12T10:25:21.129Z,30.37
2022-09-12T10:27:55.302Z,30.29
2022-09-12T10:30:28.695Z,30.19
2022-09-12T10:33:06.423Z,30.02
2022-09-12T10:35:45.834Z,29.74
2022-09-12T10:38:18.815Z,29.50
2022-09-12T10:40:47.036Z,29.37
2022-09-12T10:43:25.295Z,29.25
2022-09-12T10:45:58.654Z,29.09
2022-09-12T10:48:31.601Z,29.07
2022-09-12T10:51:00.555Z,29.11
2022-09-12T10:53:34.322Z,29.21
2022-09-12T10:56:08.064Z,29.22
2022-09-12T10:59:18.062Z,29.17
2022-09-12T11:01:51.373Z,28.99
2022-09-12T11:04:29.302Z,28.89
2022-09-12T11:07:22.822Z,28.76
2022-09-12T11:10:01.052Z,28.62
2022-09-12T11:12:39.961Z,28.52
2022-09-12T11:15:34.208Z,28.48
2022-09-12T11:18:16.095Z,28.65
2022-09-12T11:20:58.949Z,28.64
2022-09-12T11:24:11.523Z,28.47
2022-09-12T11:27:00.514Z,28.31
2022-09-12T11:29:43.152Z,28.30
2022-09-12T11:32:51.038Z,28.27
2022-09-12T11:35:25.745Z,28.26
2022-09-12T11:38:13.992Z,28.28
2022-09-12T11:40:47.407Z,28.45
2022-09-12T11:43:24.648Z,28.48
2022-09-12T11:45:54.119Z,28.47
2022-09-12T11:48:38.785Z,28.43
2022-09-12T11:51:19.072Z,28.46
2022-09-12T11:53:58.370Z,28.45
2022-09-12T11:56:26.592Z,28.32
2022-09-12T11:59:00.407Z,28.42
2022-09-12T12:01:36.268Z,28.44
2022-09-12T12:04:12.761Z,28.51
2022-09-12T12:06:52.085Z,28.57
2022-09-12T12:09:20.468Z,28.50
2022-09-12T12:11:52.627Z,28.45
2022-09-12T12:14:25.559Z,28.58
2022-09-12T12:16:53.737Z,28.70
2022-09-12T12:19:36.886Z,28.86
2022-09-12T12:22:09.988Z,28.88
2022-09-12T12:24:56.055Z,28.96
2022-09-12T12:27:26.204Z,29.09
2022-09-12T12:29:54.560Z,28.99
2022-09-12T12:32:27.124Z,29.00
2022-09-12T12:35:32.619Z,28.96
2022-09-12T12:38:02.847Z,28.99
2022-09-12T12:40:31.858Z,29.03
2022-09-12T12:43:03.041Z,29.08
2022-09-12T12:46:00.899Z,29.13
2022-09-12T12:48:33.887Z,28.99
2022-09-12T12:51:40.699Z,28.93
2022-09-12T12:54:35.699Z,28.96
2022-09-12T12:57:16.492Z,29.00
2022-09-12T12:59:49.036Z,29.02
2022-09-12T13:02:22.130Z,29.06
2022-09-12T13:04:51.327Z,29.12
2022-09-12T13:07:28.622Z,29.13
2022-09-12T13:09:58.875Z,29.08
2022-09-12T13:12:30.563Z,29.05
2022-09-12T13:14:59.635Z,28.96
2022-09-12T13:17:35.798Z,29.04
2022-09-12T13:20:29.725Z,29.08
2022-09-12T13:22:59.160Z,29.17
2022-09-12T13:25:31.346Z,29.23
2022-09-12T13:28:01.668Z,29.31
2022-09-12T13:30:32.269Z,29.41
2022-09-12T13:33:17.974Z,29.49
2022-09-12T13:36:06.351Z,29.53
2022-09-12T13:38:44.092Z,29.55
2022-09-12T13:41:31.956Z,29.55
2022-09-12T13:44:00.502Z,29.47
2022-09-12T13:46:31.663Z,29.41
2022-09-12T13:49:01.781Z,29.43
2022-09-12T13:51:32.753Z,29.38
2022-09-12T13:54:04.491Z,29.41
2022-09-12T13:56:33.984Z,29.40
2022-09-12T13:59:03.587Z,29.45
2022-09-12T14:01:40.200Z,29.40
2022-09-12T14:04:34.271Z,29.34
2022-09-12T14:07:04.241Z,29.28
2022-09-12T14:09:38.422Z,29.26
2022-09-12T14:12:18.225Z,29.25
2022-09-12T14:14:49.934Z,29.23
2022-09-12T14:17:20.798Z,29.32
2022-09-12T14:19:52.574Z,29.39
2022-09-12T14:22:20.911Z,29.50
2022-09-12T14:24:51.683Z,29.57
2022-09-12T14:27:26.154Z,29.66
2022-09-12T14:30:02.114Z,29.65
2022-09-12T14:32:30.345Z,29.55
2022-09-12T14:35:19.401Z,29.55
2022-09-12T14:37:51.495Z,29.55
2022-09-12T14:40:21.916Z,29.49
2022-09-12T14:42:56.022Z,29.47
2022-09-12T14:45:31.287Z,29.44
2022-09-12T14:47:59.811Z,29.46
2022-09-12T14:50:31.194Z,29.42
2022-09-12T14:53:08.118Z,29.39
2022-09-12T14:55:45.015Z,29.26
2022-09-12T14:58:26.242Z,29.25
2022-09-12T15:00:55.956Z,29.17
2022-09-12T15:03:27.932Z,29.18
2022-09-12T15:05:56.359Z,29.25
2022-09-12T15:08:26.129Z,29.27
2022-09-12T15:10:53.971Z,29.26
2022-09-12T15:13:25.798Z,29.22
2022-09-12T15:15:55.756Z,29.11
2022-09-12T15:18:25.751Z,29.06
2022-09-12T15:20:56.780Z,29.01
2022-09-12T15:23:35.467Z,28.88
2022-09-12T15:26:04.508Z,28.84
2022-09-12T15:28:34.683Z,28.81
2022-09-12T15:31:08.154Z,28.77
2022-09-12T15:33:36.397Z,28.69
2022-09-12T15:36:05.018Z,28.67
2022-09-12T15:38:32.898Z,28.67
2022-09-12T15:41:01.038Z,28.64
2022-09-12T15:43:28.911Z,28.63
2022-09-12T15:45:59.269Z,28.70
2022-09-12T15:48:27.395Z,28.78
2022-09-12T15:50:57.618Z,28.82
2022-09-12T15:53:25.472Z,28.90
2022-09-12T15:55:53.558Z,29.05
2022-09-12T15:58:21.483Z,29.18
2022-09-12T16:00:49.339Z,29.35
2022-09-12T16:03:23.755Z,29.43
2022-09-12T16:05:55.966Z,29.33
2022-09-12T16:08:24.687Z,29.22
2022-09-12T16:10:55.801Z,29.22
2022-09-12T16:13:23.921Z,29.40
2022-09-12T16:15:52.625Z,29.56
2022-09-12T16:18:21.911Z,29.64
2022-09-12T16:20:53.366Z,29.61
2022-09-12T16:23:21.493Z,29.79
2022-09-12T16:25:57.264Z,30.15
2022-09-12T16:28:25.535Z,30.17
2022-09-12T16:30:57.322Z,29.95
2022-09-12T16:33:27.566Z,29.73
2022-09-12T16:36:03.982Z,29.50
2022-09-12T16:38:32.341Z,29.36
2022-09-12T16:41:03.029Z,29.18
2022-09-12T16:43:31.073Z,28.97
2022-09-12T16:46:03.807Z,28.88
2022-09-12T16:48:33.842Z,28.69
2022-09-12T16:51:05.057Z,28.55
2022-09-12T16:53:34.104Z,28.43
2022-09-12T16:56:02.522Z,28.29
2022-09-12T16:58:34.928Z,28.22
2022-09-12T17:01:07.595Z,28.08
2022-09-12T17:03:37.143Z,27.92
2022-09-12T17:06:08.655Z,27.77
2022-09-12T17:08:39.357Z,27.62
2022-09-12T17:11:09.476Z,27.45
2022-09-12T17:14:03.219Z,27.30
2022-09-12T17:16:26.448Z,27.14
2022-09-12T17:18:55.755Z,26.95
2022-09-12T17:21:24.577Z,26.79
2022-09-12T17:23:52.685Z,26.65
2022-09-12T17:26:20.979Z,26.49
2022-09-12T17:28:49.583Z,26.35
2022-09-12T17:31:18.161Z,26.17
2022-09-12T17:33:46.498Z,26.00
2022-09-12T17:36:18.272Z,25.86
2022-09-12T17:38:47.289Z,25.70
2022-09-12T17:41:17.738Z,25.60
2022-09-12T17:43:46.784Z,25.47
2022-09-12T17:46:14.798Z,25.37
2022-09-12T17:48:43.071Z,25.26
2022-09-12T17:51:13.023Z,25.17
2022-09-12T17:53:43.911Z,25.09
2022-09-12T17:56:12.558Z,24.98
2022-09-12T17:58:40.496Z,24.89
2022-09-12T18:01:28.971Z,24.81
2022-09-12T18:03:58.717Z,24.73
2022-09-12T18:06:28.617Z,24.65
2022-09-12T18:09:00.610Z,24.60
2022-09-12T18:11:28.940Z,24.54
2022-09-12T18:13:56.860Z,24.47
2022-09-12T18:16:24.709Z,24.41
2022-09-12T18:18:53.206Z,24.35
2022-09-12T18:21:21.275Z,24.27
2022-09-12T18:23:50.227Z,24.18
2022-09-12T18:26:19.736Z,24.09
2022-09-12T18:28:47.603Z,24.00
2022-09-12T18:31:18.239Z,23.93
2022-09-12T18:33:47.209Z,23.87
2022-09-12T18:36:16.350Z,23.78
2022-09-12T18:38:45.308Z,23.71
2022-09-12T18:41:15.156Z,23.65
2022-09-12T18:43:44.991Z,23.60
2022-09-12T18:46:15.369Z,23.53
2022-09-12T18:48:45.045Z,23.45
2022-09-12T18:51:15.595Z,23.38
2022-09-12T18:53:43.733Z,23.30
2022-09-12T18:56:13.614Z,23.22
2022-09-12T18:58:44.282Z,23.18
2022-09-12T19:01:14.022Z,23.13
2022-09-12T19:03:42.825Z,23.06
2022-09-12T19:06:12.144Z,22.98
2022-09-12T19:08:40.497Z,22.91
2022-09-12T19:11:09.276Z,22.86
2022-09-12T19:13:41.346Z,22.83
2022-09-12T19:16:14.124Z,22.79
2022-09-12T19:18:42.893Z,22.74
2022-09-12T19:21:14.652Z,22.69
2022-09-12T19:23:43.018Z,22.65
2022-09-12T19:26:13.635Z,22.62
2022-09-12T19:28:42.292Z,22.58
2022-09-12T19:31:14.074Z,22.55
2022-09-12T19:33:44.584Z,22.50
2022-09-12T19:36:34.011Z,22.46
2022-09-12T19:39:02.673Z,22.39
2022-09-12T19:41:31.303Z,22.33
2022-09-12T19:44:00.348Z,22.27
2022-09-12T19:46:29.868Z,22.21
2022-09-12T19:48:57.772Z,22.14
2022-09-12T19:51:25.696Z,22.09
2022-09-12T19:53:55.088Z,22.06
2022-09-12T19:56:23.690Z,22.02
2022-09-12T19:58:56.122Z,22.01
2022-09-12T20:01:28.262Z,21.97
2022-09-12T20:03:58.673Z,21.95
2022-09-12T20:06:27.591Z,21.90
2022-09-12T20:08:56.314Z,21.88
2022-09-12T20:11:25.563Z,21.87
2022-09-12T20:13:54.472Z,21.84
2022-09-12T20:16:24.568Z,21.81
2022-09-12T20:18:58.690Z,21.78
2022-09-12T20:21:31.425Z,21.78
2022-09-12T20:24:05.258Z,21.76
2022-09-12T20:26:34.135Z,21.75
2022-09-12T20:29:02.478Z,21.73
2022-09-12T20:31:31.121Z,21.69
2022-09-12T20:34:00.634Z,21.68
2022-09-12T20:36:29.305Z,21.67
2022-09-12T20:39:01.109Z,21.66
2022-09-12T20:41:31.350Z,21.64
2022-09-12T20:43:59.754Z,21.62
2022-09-12T20:46:29.294Z,21.59
2022-09-12T20:48:58.391Z,21.57
2022-09-12T20:51:30.244Z,21.55
2022-09-12T20:53:59.615Z,21.52
2022-09-12T20:56:29.372Z,21.50
2022-09-12T20:58:57.576Z,21.47
2022-09-12T21:01:26.851Z,21.44
2022-09-12T21:03:55.277Z,21.42
2022-09-12T21:06:23.142Z,21.39
2022-09-12T21:08:52.587Z,21.37
2022-09-12T21:11:21.117Z,21.34
2022-09-12T21:13:49.104Z,21.33
2022-09-12T21:16:19.821Z,21.30
2022-09-12T21:18:48.540Z,21.28
2022-09-12T21:21:16.424Z,21.23
2022-09-12T21:23:45.236Z,21.22
2022-09-12T21:26:15.554Z,21.19
2022-09-12T21:28:43.481Z,21.14
2022-09-12T21:31:11.947Z,21.10
2022-09-12T21:33:40.480Z,21.08
2022-09-12T21:36:09.652Z,21.05
2022-09-12T21:38:37.893Z,21.01
2022-09-12T21:41:08.809Z,20.97
2022-09-12T21:43:38.666Z,20.95
2022-09-12T21:46:08.245Z,20.91
2022-09-12T21:48:37.781Z,20.88
2022-09-12T21:51:06.027Z,20.87
2022-09-12T21:53:34.359Z,20.83
2022-09-12T21:56:03.476Z,20.81
2022-09-12T21:58:31.348Z,20.79
2022-09-12T22:01:01.283Z,20.77
2022-09-12T22:03:30.534Z,20.74
2022-09-12T22:06:00.452Z,20.72
2022-09-12T22:08:29.540Z,20.70
2022-09-12T22:11:02.328Z,20.66
2022-09-12T22:13:32.397Z,20.65
2022-09-12T22:16:02.827Z,20.63
2022-09-12T22:18:32.826Z,20.59
2022-09-12T22:21:02.574Z,20.56
2022-09-12T22:23:48.388Z,20.55
2022-09-12T22:26:17.274Z,20.52
2022-09-12T22:28:47.177Z,20.50
2022-09-12T22:31:17.973Z,20.47
2022-09-12T22:33:46.450Z,20.43
2022-09-12T22:36:14.629Z,20.42
2022-09-12T22:38:42.558Z,20.41
2022-09-12T22:41:12.454Z,20.38
2022-09-12T22:43:40.665Z,20.36
2022-09-12T22:46:10.222Z,20.33
2022-09-12T22:48:40.346Z,20.32
2022-09-12T22:51:08.309Z,20.31
2022-09-12T22:53:36.981Z,20.30
2022-09-12T22:56:06.602Z,20.30
2022-09-12T22:58:37.308Z,20.30
2022-09-12T23:01:06.982Z,20.30
2022-09-12T23:03:35.424Z,20.28
2022-09-12T23:06:05.091Z,20.27
2022-09-12T23:08:34.981Z,20.25
2022-09-12T23:11:03.450Z,20.25
2022-09-12T23:13:32.174Z,20.24
2022-09-12T23:16:01.305Z,20.21
2022-09-12T23:18:29.464Z,20.18
2022-09-12T23:20:59.332Z,20.15
2022-09-12T23:23:29.257Z,20.11
2022-09-12T23:26:05.653Z,20.06
2022-09-12T23:28:34.709Z,20.04
2022-09-12T23:31:02.822Z,19.97
2022-09-12T23:33:32.231Z,19.94
2022-09-12T23:36:01.261Z,19.90
2022-09-12T23:38:31.414Z,19.86
2022-09-12T23:41:00.048Z,19.82
2022-09-12T23:43:28.662Z,19.79
2022-09-12T23:45:56.540Z,19.79
2022-09-12T23:48:24.890Z,19.80
2022-09-12T23:50:53.806Z,19.79
2022-09-12T23:53:22.870Z,19.79
2022-09-12T23:55:52.661Z,19.78
2022-09-12T23:58:21.576Z,19.78
